createdAt,value
2019-03-17T00:01:27.758Z,99680.52
2019-03-17T00:03:35.165Z,99676.59
2019-03-17T00:05:42.514Z,99683.51
2019-03-17T00:07:49.979Z,99681.41
2019-03-17T00:09:57.310Z,99679.21
2019-03-17T00:12:04.627Z,99681.87
2019-03-17T00:14:12.108Z,99682.77
2019-03-17T00:16:19.457Z,99677.22
2019-03-17T00:18:26.844Z,99681.13
2019-03-17T00:20:34.285Z,99675.63
2019-03-17T00:22:41.663Z,99671.48
2019-03-17T00:24:49.223Z,99668.59
2019-03-17T00:26:56.599Z,99669.56
2019-03-17T00:29:03.878Z,99661.55
2019-03-17T00:31:22.867Z,99651.61
2019-03-17T00:33:20.384Z,99646.99
2019-03-17T00:35:27.747Z,99648.34
2019-03-17T00:37:35.120Z,99652.64
2019-03-17T00:39:42.484Z,99652.31
2019-03-17T00:41:49.834Z,99651.02
2019-03-17T00:43:57.214Z,99651.98
2019-03-17T00:46:04.710Z,99647.94
2019-03-17T00:48:12.043Z,99647.32
2019-03-17T00:50:19.406Z,99632.96
2019-03-17T00:52:26.716Z,99645.33
2019-03-17T00:54:34.060Z,99634.88
2019-03-17T00:56:41.375Z,99635.43
2019-03-17T00:58:48.768Z,99631.52
2019-03-17T01:00:56.157Z,99630.95
2019-03-17T01:03:03.560Z,99626.63
2019-03-17T01:05:11.328Z,99624.43
2019-03-17T01:07:18.657Z,99619.54
2019-03-17T01:09:25.993Z,99629.75
2019-03-17T01:11:33.472Z,99626.44
2019-03-17T01:13:40.889Z,99620.01
2019-03-17T01:15:48.308Z,99619.16
2019-03-17T01:17:55.650Z,99624.90
2019-03-17T01:20:03.009Z,99625.36
2019-03-17T01:22:10.452Z,99623.08
2019-03-17T01:24:17.790Z,99623.31
2019-03-17T01:26:25.088Z,99623.69
2019-03-17T01:28:32.520Z,99617.49
2019-03-17T01:30:39.948Z,99622.72
2019-03-17T01:32:47.261Z,99615.39
2019-03-17T01:34:54.661Z,99606.95
2019-03-17T01:37:02.041Z,99596.09
2019-03-17T01:39:09.991Z,99592.87
2019-03-17T01:41:17.306Z,99593.48
2019-03-17T01:43:24.687Z,99590.03
2019-03-17T01:45:32.072Z,99591.80
2019-03-17T01:47:39.296Z,99594.80
2019-03-17T01:49:46.687Z,99592.59
2019-03-17T01:51:54.003Z,99588.16
2019-03-17T01:54:01.414Z,99585.03
2019-03-17T01:56:08.757Z,99579.41
2019-03-17T01:58:16.131Z,99575.81
2019-03-17T02:00:23.447Z,99575.81
2019-03-17T02:02:30.765Z,99584.90
2019-03-17T02:04:38.748Z,99580.47
2019-03-17T02:06:46.118Z,99580.14
2019-03-17T02:08:54.393Z,99573.48
2019-03-17T02:11:01.701Z,99575.25
2019-03-17T02:13:09.031Z,99572.63
2019-03-17T02:15:16.495Z,99563.36
2019-03-17T02:17:23.861Z,99553.84
2019-03-17T02:19:31.203Z,99555.99
2019-03-17T02:21:38.594Z,99560.23
2019-03-17T02:23:46.006Z,99573.29
2019-03-17T02:25:53.680Z,99570.11
2019-03-17T02:28:00.905Z,99562.73
2019-03-17T02:30:09.168Z,99558.30
2019-03-17T02:32:16.606Z,99557.84
2019-03-17T02:34:23.934Z,99553.08
2019-03-17T02:36:31.273Z,99552.88
2019-03-17T02:38:38.585Z,99551.49
2019-03-17T02:40:45.981Z,99552.28
2019-03-17T02:42:53.238Z,99555.16
2019-03-17T02:45:00.743Z,99547.22
2019-03-17T02:47:08.100Z,99547.22
2019-03-17T02:49:15.435Z,99548.33
2019-03-17T02:51:22.823Z,99542.69
2019-03-17T02:53:30.237Z,99535.32
2019-03-17T02:55:37.684Z,99532.19
2019-03-17T02:57:44.979Z,99536.05
2019-03-17T02:59:52.398Z,99531.52
2019-03-17T03:01:59.798Z,99529.96
2019-03-17T03:04:07.140Z,99542.50
2019-03-17T03:06:14.569Z,99534.98
2019-03-17T03:08:21.900Z,99527.23
2019-03-17T03:10:31.762Z,99526.71
2019-03-17T03:12:38.347Z,99521.40
2019-03-17T03:14:45.694Z,99526.19
2019-03-17T03:16:53.096Z,99523.02
2019-03-17T03:19:00.486Z,99529.44
2019-03-17T03:21:07.814Z,99527.93
2019-03-17T03:23:15.241Z,99526.89
2019-03-17T03:25:22.631Z,99523.80
2019-03-17T03:27:29.993Z,99522.91
2019-03-17T03:29:37.329Z,99523.28
2019-03-17T03:31:44.683Z,99521.45
2019-03-17T03:33:52.389Z,99515.23
2019-03-17T03:36:10.615Z,99517.27
2019-03-17T03:38:08.741Z,99519.36
2019-03-17T03:40:16.243Z,99510.89
2019-03-17T03:42:24.132Z,99511.77
2019-03-17T03:44:31.458Z,99517.25
2019-03-17T03:46:38.791Z,99505.48
2019-03-17T03:48:46.103Z,99503.72
2019-03-17T03:50:53.522Z,99501.41
2019-03-17T03:53:02.082Z,99498.27
2019-03-17T03:55:09.541Z,99500.48
2019-03-17T03:57:16.839Z,99494.08
2019-03-17T03:59:24.207Z,99502.70
2019-03-17T04:01:31.717Z,99505.16
2019-03-17T04:03:39.058Z,99506.88
2019-03-17T04:05:46.390Z,99502.21
2019-03-17T04:07:53.741Z,99502.05
2019-03-17T04:10:01.083Z,99504.77
2019-03-17T04:12:08.451Z,99513.55
2019-03-17T04:14:15.817Z,99509.94
2019-03-17T04:16:23.257Z,99505.80
2019-03-17T04:18:30.590Z,99514.11
2019-03-17T04:20:37.924Z,99507.41
2019-03-17T04:22:45.347Z,99502.52
2019-03-17T04:24:52.655Z,99507.84
2019-03-17T04:27:00.004Z,99505.23
2019-03-17T04:29:07.372Z,99510.77
2019-03-17T04:31:14.919Z,99500.39
2019-03-17T04:33:22.248Z,99505.56
2019-03-17T04:35:29.549Z,99511.41
2019-03-17T04:37:36.930Z,99509.81
2019-03-17T04:39:44.253Z,99502.92
2019-03-17T04:41:51.641Z,99509.77
2019-03-17T04:43:59.087Z,99499.36
2019-03-17T04:46:06.520Z,99502.28
2019-03-17T04:48:13.925Z,99503.37
2019-03-17T04:50:21.266Z,99491.22
2019-03-17T04:52:28.547Z,99497.23
2019-03-17T04:54:35.901Z,99501.99
2019-03-17T04:56:43.228Z,99505.39
2019-03-17T04:58:50.619Z,99505.79
2019-03-17T05:00:57.987Z,99494.78
2019-03-17T05:03:05.317Z,99487.36
2019-03-17T05:05:12.804Z,99489.84
2019-03-17T05:07:20.167Z,99493.24
2019-03-17T05:09:27.568Z,99488.23
2019-03-17T05:11:35.960Z,99496.53
2019-03-17T05:13:43.426Z,99494.99
2019-03-17T05:15:50.833Z,99499.86
2019-03-17T05:17:58.276Z,99494.86
2019-03-17T05:20:06.288Z,99496.17
2019-03-17T05:22:13.685Z,99496.54
2019-03-17T05:24:21.077Z,99497.75
2019-03-17T05:26:28.436Z,99500.20
2019-03-17T05:28:35.868Z,99495.80
2019-03-17T05:30:43.413Z,99498.35
2019-03-17T05:32:50.889Z,99501.04
2019-03-17T05:34:58.274Z,99500.91
2019-03-17T05:37:06.970Z,99500.37
2019-03-17T05:39:14.614Z,99501.14
2019-03-17T05:41:22.022Z,99491.87
2019-03-17T05:43:29.430Z,99502.58
2019-03-17T05:45:36.918Z,99501.27
2019-03-17T05:47:44.419Z,99500.19
2019-03-17T05:49:51.878Z,99510.44
2019-03-17T05:51:59.224Z,99505.30
2019-03-17T05:54:06.760Z,99499.12
2019-03-17T05:56:14.208Z,99505.13
2019-03-17T05:58:21.708Z,99515.07
2019-03-17T06:00:29.199Z,99505.43
2019-03-17T06:02:36.700Z,99510.06
2019-03-17T06:04:44.185Z,99517.92
2019-03-17T06:06:51.615Z,99522.08
2019-03-17T06:08:59.056Z,99521.01
2019-03-17T06:11:06.474Z,99517.61
2019-03-17T06:13:13.849Z,99520.83
2019-03-17T06:15:21.361Z,99514.88
2019-03-17T06:17:28.758Z,99507.02
2019-03-17T06:19:36.132Z,99512.02
2019-03-17T06:21:43.536Z,99509.73
2019-03-17T06:23:50.909Z,99510.94
2019-03-17T06:25:58.494Z,99509.78
2019-03-17T06:28:05.939Z,99507.16
2019-03-17T06:30:13.553Z,99514.31
2019-03-17T06:32:21.222Z,99515.25
2019-03-17T06:34:28.823Z,99510.77
2019-03-17T06:36:36.229Z,99511.55
2019-03-17T06:38:46.739Z,99504.59
2019-03-17T06:40:54.602Z,99508.45
2019-03-17T06:43:02.158Z,99499.86
2019-03-17T06:45:10.158Z,99495.02
2019-03-17T06:47:17.659Z,99494.84
2019-03-17T06:49:25.305Z,99498.16
2019-03-17T06:51:33.952Z,99497.07
2019-03-17T06:53:41.665Z,99494.27
2019-03-17T06:55:49.129Z,99491.47
2019-03-17T06:57:56.698Z,99492.84
2019-03-17T07:00:04.187Z,99493.07
2019-03-17T07:02:11.600Z,99499.45
2019-03-17T07:04:19.355Z,99492.70
2019-03-17T07:06:26.753Z,99494.09
2019-03-17T07:08:34.203Z,99481.39
2019-03-17T07:10:41.738Z,99485.15
2019-03-17T07:12:49.356Z,99487.04
2019-03-17T07:14:57.340Z,99474.52
2019-03-17T07:17:04.841Z,99481.11
2019-03-17T07:19:14.459Z,99476.09
2019-03-17T07:21:22.392Z,99475.36
2019-03-17T07:23:29.971Z,99485.98
2019-03-17T07:25:37.430Z,99475.36
2019-03-17T07:27:45.001Z,99490.56
2019-03-17T07:29:52.506Z,99477.98
2019-03-17T07:31:59.983Z,99480.92
2019-03-17T07:34:07.554Z,99477.63
2019-03-17T07:36:15.067Z,99478.79
2019-03-17T07:38:22.521Z,99480.31
2019-03-17T07:40:30.044Z,99478.62
2019-03-17T07:42:37.615Z,99486.70
2019-03-17T07:44:45.109Z,99480.81
2019-03-17T07:46:52.501Z,99480.17
2019-03-17T07:48:59.959Z,99485.60
2019-03-17T07:51:07.518Z,99484.13
2019-03-17T07:53:16.436Z,99480.39
2019-03-17T07:55:23.893Z,99479.28
2019-03-17T07:57:31.379Z,99483.30
2019-03-17T07:59:38.767Z,99476.17
2019-03-17T08:01:46.191Z,99474.50
2019-03-17T08:03:54.717Z,99477.33
2019-03-17T08:06:03.044Z,99476.86
2019-03-17T08:08:10.657Z,99469.22
2019-03-17T08:10:18.176Z,99470.14
2019-03-17T08:12:25.771Z,99464.69
2019-03-17T08:14:33.446Z,99465.55
2019-03-17T08:16:41.107Z,99477.69
2019-03-17T08:18:48.686Z,99477.48
2019-03-17T08:20:56.368Z,99469.03
2019-03-17T08:23:03.730Z,99478.23
2019-03-17T08:25:11.386Z,99479.91
2019-03-17T08:27:18.790Z,99474.84
2019-03-17T08:29:26.120Z,99478.31
2019-03-17T08:31:34.511Z,99474.95
2019-03-17T08:33:41.918Z,99472.40
2019-03-17T08:35:49.405Z,99473.80
2019-03-17T08:37:56.988Z,99476.23
2019-03-17T08:40:05.084Z,99469.93
2019-03-17T08:42:12.506Z,99474.80
2019-03-17T08:44:19.963Z,99480.45
2019-03-17T08:46:27.407Z,99471.61
2019-03-17T08:48:34.988Z,99466.50
2019-03-17T08:50:42.599Z,99466.48
2019-03-17T08:52:50.334Z,99472.48
2019-03-17T08:54:58.116Z,99467.76
2019-03-17T08:57:05.736Z,99458.42
2019-03-17T08:59:13.475Z,99457.89
2019-03-17T09:01:20.994Z,99452.62
2019-03-17T09:03:34.042Z,99457.05
2019-03-17T09:05:44.750Z,99448.91
2019-03-17T09:07:52.234Z,99444.41
2019-03-17T09:09:59.818Z,99450.13
2019-03-17T09:12:07.445Z,99443.83
2019-03-17T09:14:15.120Z,99441.45
2019-03-17T09:16:22.751Z,99442.34
2019-03-17T09:18:30.612Z,99436.80
2019-03-17T09:20:38.674Z,99437.38
2019-03-17T09:22:46.317Z,99433.43
2019-03-17T09:24:53.796Z,99427.58
2019-03-17T09:27:02.420Z,99433.52
2019-03-17T09:29:10.109Z,99430.15
2019-03-17T09:31:17.633Z,99431.56
2019-03-17T09:33:25.232Z,99432.37
2019-03-17T09:35:33.838Z,99433.77
2019-03-17T09:37:41.443Z,99424.62
2019-03-17T09:39:49.040Z,99428.97
2019-03-17T09:41:56.605Z,99422.29
2019-03-17T09:44:04.175Z,99423.20
2019-03-17T09:46:11.669Z,99412.44
2019-03-17T09:48:19.539Z,99417.74
2019-03-17T09:50:27.772Z,99415.10
2019-03-17T09:52:35.430Z,99407.86
2019-03-17T09:54:43.054Z,99402.19
2019-03-17T09:56:50.671Z,99395.67
2019-03-17T09:58:58.494Z,99398.06
2019-03-17T10:01:06.124Z,99400.22
2019-03-17T10:03:14.756Z,99408.57
2019-03-17T10:05:23.561Z,99409.33
2019-03-17T10:07:33.605Z,99405.23
2019-03-17T10:09:41.053Z,99400.52
2019-03-17T10:11:48.761Z,99403.22
2019-03-17T10:13:56.353Z,99397.67
2019-03-17T10:16:04.336Z,99403.45
2019-03-17T10:18:12.448Z,99404.39
2019-03-17T10:20:20.271Z,99403.31
2019-03-17T10:22:27.842Z,99397.02
2019-03-17T10:24:36.626Z,99398.67
2019-03-17T10:26:44.300Z,99388.51
2019-03-17T10:28:51.867Z,99379.61
2019-03-17T10:31:00.097Z,99372.05
2019-03-17T10:33:07.627Z,99366.78
2019-03-17T10:35:15.367Z,99365.22
2019-03-17T10:37:22.929Z,99357.00
2019-03-17T10:39:30.756Z,99361.15
2019-03-17T10:41:38.216Z,99351.03
2019-03-17T10:43:46.021Z,99354.88
2019-03-17T10:45:53.674Z,99352.71
2019-03-17T10:48:01.550Z,99355.37
2019-03-17T10:50:12.531Z,99355.73
2019-03-17T10:52:20.015Z,99363.06
2019-03-17T10:54:27.498Z,99360.28
2019-03-17T10:56:34.979Z,99349.70
2019-03-17T10:58:42.522Z,99347.64
2019-03-17T11:00:49.977Z,99342.59
2019-03-17T11:02:58.348Z,99348.06
2019-03-17T11:05:07.707Z,99348.58
2019-03-17T11:07:15.278Z,99348.08
2019-03-17T11:09:25.387Z,99345.20
2019-03-17T11:11:32.018Z,99343.66
2019-03-17T11:13:39.568Z,99346.73
2019-03-17T11:15:47.073Z,99347.68
2019-03-17T11:17:54.511Z,99342.59
2019-03-17T11:20:01.965Z,99338.06
2019-03-17T11:22:09.350Z,99343.86
2019-03-17T11:24:16.891Z,99333.58
2019-03-17T11:26:25.519Z,99328.23
2019-03-17T11:28:33.253Z,99314.15
2019-03-17T11:30:40.669Z,99322.47
2019-03-17T11:32:48.250Z,99322.44
2019-03-17T11:34:55.675Z,99328.80
2019-03-17T11:37:03.717Z,99323.64
2019-03-17T11:39:11.107Z,99318.27
2019-03-17T11:41:18.814Z,99322.42
2019-03-17T11:43:26.386Z,99325.99
2019-03-17T11:45:34.294Z,99328.98
2019-03-17T11:47:41.964Z,99315.16
2019-03-17T11:49:49.647Z,99308.96
2019-03-17T11:51:57.221Z,99299.29
2019-03-17T11:54:04.799Z,99303.72
2019-03-17T11:56:12.231Z,99302.89
2019-03-17T11:58:19.799Z,99290.23
2019-03-17T12:00:27.688Z,99296.22
2019-03-17T12:02:35.156Z,99288.61
2019-03-17T12:04:42.753Z,99298.55
2019-03-17T12:06:50.674Z,99285.82
2019-03-17T12:08:58.076Z,99301.90
2019-03-17T12:11:05.647Z,99296.95
2019-03-17T12:13:16.319Z,99293.86
2019-03-17T12:15:24.207Z,99285.48
2019-03-17T12:17:31.862Z,99278.47
2019-03-17T12:19:39.993Z,99273.25
2019-03-17T12:21:47.655Z,99269.73
2019-03-17T12:23:55.164Z,99266.66
2019-03-17T12:26:02.946Z,99263.59
2019-03-17T12:28:10.434Z,99261.14
2019-03-17T12:30:23.359Z,99255.47
2019-03-17T12:32:30.771Z,99256.99
2019-03-17T12:34:38.135Z,99253.66
2019-03-17T12:36:45.515Z,99246.73
2019-03-17T12:38:52.929Z,99236.03
2019-03-17T12:41:00.423Z,99237.83
2019-03-17T12:43:08.116Z,99242.51
2019-03-17T12:45:16.401Z,99232.38
2019-03-17T12:47:24.115Z,99232.14
2019-03-17T12:49:31.736Z,99225.41
2019-03-17T12:51:39.135Z,99225.27
2019-03-17T12:53:47.048Z,99224.58
2019-03-17T12:55:55.647Z,99225.02
2019-03-17T12:58:03.427Z,99230.20
2019-03-17T13:00:14.819Z,99236.22
2019-03-17T13:02:22.430Z,99225.39
2019-03-17T13:04:30.670Z,99235.03
2019-03-17T13:06:39.445Z,99233.88
2019-03-17T13:08:47.349Z,99224.66
2019-03-17T13:10:55.223Z,99221.54
2019-03-17T13:13:03.170Z,99228.98
2019-03-17T13:15:11.673Z,99238.41
2019-03-17T13:17:22.334Z,99235.58
2019-03-17T13:19:30.536Z,99231.73
2019-03-17T13:21:38.602Z,99240.38
2019-03-17T13:23:46.441Z,99234.62
2019-03-17T13:25:54.402Z,99237.39
2019-03-17T13:28:02.837Z,99236.97
2019-03-17T13:30:12.807Z,99222.17
2019-03-17T13:32:21.682Z,99219.02
2019-03-17T13:34:29.814Z,99225.59
2019-03-17T13:36:37.440Z,99222.84
2019-03-17T13:38:45.065Z,99225.14
2019-03-17T13:40:52.593Z,99212.47
2019-03-17T13:43:00.217Z,99216.91
2019-03-17T13:45:08.774Z,99206.47
2019-03-17T13:47:16.538Z,99200.39
2019-03-17T13:49:27.329Z,99203.05
2019-03-17T13:51:34.996Z,99210.56
2019-03-17T13:53:42.421Z,99203.41
2019-03-17T13:55:50.298Z,99206.70
2019-03-17T13:57:59.032Z,99215.19
2019-03-17T14:00:08.156Z,99211.64
2019-03-17T14:02:15.846Z,99201.20
2019-03-17T14:04:23.787Z,99209.81
2019-03-17T14:06:31.419Z,99206.63
2019-03-17T14:08:39.419Z,99202.33
2019-03-17T14:10:47.647Z,99199.53
2019-03-17T14:12:55.736Z,99203.60
2019-03-17T14:15:04.080Z,99193.06
2019-03-17T14:17:11.893Z,99193.31
2019-03-17T14:19:19.880Z,99188.38
2019-03-17T14:21:27.710Z,99194.63
2019-03-17T14:23:35.879Z,99182.75
2019-03-17T14:25:43.563Z,99192.20
2019-03-17T14:27:51.150Z,99184.22
2019-03-17T14:29:58.671Z,99189.95
2019-03-17T14:32:06.457Z,99182.41
2019-03-17T14:34:13.972Z,99178.73
2019-03-17T14:36:21.851Z,99171.77
2019-03-17T14:38:29.596Z,99164.48
2019-03-17T14:40:39.254Z,99163.88
2019-03-17T14:42:47.967Z,99159.66
2019-03-17T14:44:56.026Z,99155.80
2019-03-17T14:47:03.878Z,99154.56
2019-03-17T14:49:15.262Z,99151.18
2019-03-17T14:51:23.294Z,99146.17
2019-03-17T14:53:31.078Z,99143.23
2019-03-17T14:55:39.200Z,99141.39
2019-03-17T14:57:47.073Z,99137.77
2019-03-17T14:59:54.669Z,99142.09
2019-03-17T15:02:02.313Z,99143.09
2019-03-17T15:04:09.933Z,99139.02
2019-03-17T15:06:18.618Z,99139.02
2019-03-17T15:08:31.123Z,99135.34
2019-03-17T15:10:43.559Z,99137.64
2019-03-17T15:12:53.528Z,99133.09
2019-03-17T15:15:01.159Z,99135.58
2019-03-17T15:17:08.776Z,99138.31
2019-03-17T15:19:16.513Z,99148.08
2019-03-17T15:21:24.844Z,99147.63
2019-03-17T15:23:32.324Z,99149.46
2019-03-17T15:25:39.906Z,99149.41
2019-03-17T15:27:47.895Z,99149.67
2019-03-17T15:30:00.485Z,99145.92
2019-03-17T15:32:09.673Z,99149.03
2019-03-17T15:34:17.431Z,99150.24
2019-03-17T15:36:24.997Z,99160.06
2019-03-17T15:38:32.690Z,99153.35
2019-03-17T15:40:41.041Z,99156.33
2019-03-17T15:42:48.925Z,99158.98
2019-03-17T15:44:56.761Z,99151.68
2019-03-17T15:47:04.802Z,99149.47
2019-03-17T15:49:12.474Z,99155.68
2019-03-17T15:51:20.962Z,99148.89
2019-03-17T15:53:28.714Z,99150.74
2019-03-17T15:55:36.320Z,99145.67
2019-03-17T15:57:43.955Z,99145.34
2019-03-17T15:59:51.564Z,99148.00
2019-03-17T16:01:59.043Z,99154.09
2019-03-17T16:04:06.857Z,99157.38
2019-03-17T16:06:14.699Z,99151.37
2019-03-17T16:08:22.189Z,99148.96
2019-03-17T16:10:29.843Z,99149.33
2019-03-17T16:12:37.681Z,99150.96
2019-03-17T16:14:46.254Z,99148.24
2019-03-17T16:16:53.695Z,99141.33
2019-03-17T16:19:01.410Z,99133.23
2019-03-17T16:21:09.212Z,99147.86
2019-03-17T16:23:17.334Z,99142.84
2019-03-17T16:25:24.909Z,99149.26
2019-03-17T16:27:32.753Z,99152.95
2019-03-17T16:29:40.424Z,99149.68
2019-03-17T16:31:48.818Z,99156.55
2019-03-17T16:33:56.474Z,99153.69
2019-03-17T16:36:04.083Z,99141.41
2019-03-17T16:38:11.959Z,99145.11
2019-03-17T16:40:22.350Z,99142.38
2019-03-17T16:42:30.112Z,99147.06
2019-03-17T16:44:38.090Z,99152.05
2019-03-17T16:46:46.095Z,99162.45
2019-03-17T16:48:53.693Z,99160.97
2019-03-17T16:51:01.697Z,99172.28
2019-03-17T16:53:09.817Z,99176.97
2019-03-17T16:55:17.749Z,99173.14
2019-03-17T16:57:25.266Z,99167.30
2019-03-17T16:59:33.369Z,99176.98
2019-03-17T17:01:41.049Z,99187.45
2019-03-17T17:03:49.037Z,99198.34
2019-03-17T17:05:56.927Z,99190.38
2019-03-17T17:08:06.977Z,99190.20
2019-03-17T17:12:46.189Z,99193.25
2019-03-17T17:14:53.889Z,99198.34
2019-03-17T17:17:02.560Z,99192.73
2019-03-17T17:19:11.135Z,99191.53
2019-03-17T17:21:19.018Z,99188.69
2019-03-17T17:23:28.199Z,99192.94
2019-03-17T17:25:36.528Z,99183.56
2019-03-17T17:27:45.139Z,99184.82
2019-03-17T17:29:53.532Z,99184.64
2019-03-17T17:32:02.281Z,99186.84
2019-03-17T17:34:10.512Z,99180.43
2019-03-17T17:36:18.497Z,99186.95
2019-03-17T17:38:26.176Z,99181.34
2019-03-17T17:40:33.906Z,99191.11
2019-03-17T17:42:42.419Z,99191.80
2019-03-17T17:44:50.033Z,99201.05
2019-03-17T17:46:58.604Z,99202.53
2019-03-17T17:49:07.036Z,99201.37
2019-03-17T17:51:16.427Z,99198.77
2019-03-17T17:53:26.024Z,99196.66
2019-03-17T17:55:34.057Z,99202.34
2019-03-17T17:57:45.993Z,99195.64
2019-03-17T17:59:54.058Z,99203.29
2019-03-17T18:02:02.016Z,99190.08
2019-03-17T18:04:11.255Z,99177.47
2019-03-17T18:06:19.373Z,99183.23
2019-03-17T18:08:27.019Z,99188.05
2019-03-17T18:10:34.999Z,99179.28
2019-03-17T18:12:43.278Z,99182.38
2019-03-17T18:14:51.134Z,99182.08
2019-03-17T18:16:59.277Z,99183.97
2019-03-17T18:19:07.322Z,99185.16
2019-03-17T18:21:15.253Z,99183.59
2019-03-17T18:23:23.254Z,99188.61
2019-03-17T18:25:31.219Z,99196.45
2019-03-17T18:27:39.201Z,99201.02
2019-03-17T18:29:47.065Z,99199.21
2019-03-17T18:31:56.272Z,99199.92
2019-03-17T18:34:04.495Z,99213.98
2019-03-17T18:36:13.559Z,99208.69
2019-03-17T18:38:22.545Z,99207.38
2019-03-17T18:40:30.815Z,99203.19
2019-03-17T18:42:40.394Z,99209.53
2019-03-17T18:44:48.852Z,99207.61
2019-03-17T18:46:57.898Z,99218.91
2019-03-17T18:49:06.256Z,99218.55
2019-03-17T18:51:20.732Z,99212.06
2019-03-17T18:53:26.599Z,99216.87
2019-03-17T18:55:35.574Z,99217.34
2019-03-17T18:57:48.541Z,99222.73
2019-03-17T19:00:01.207Z,99223.94
2019-03-17T19:02:11.553Z,99224.97
2019-03-17T19:04:22.370Z,99221.64
2019-03-17T19:06:30.841Z,99211.93
2019-03-17T19:08:42.002Z,99216.74
2019-03-17T19:10:50.326Z,99211.43
2019-03-17T19:12:58.324Z,99211.91
2019-03-17T19:15:07.644Z,99207.83
2019-03-17T19:17:15.717Z,99212.25
2019-03-17T19:19:25.513Z,99212.98
2019-03-17T19:21:33.808Z,99212.95
2019-03-17T19:23:42.880Z,99216.41
2019-03-17T19:25:51.127Z,99214.41
2019-03-17T19:27:59.157Z,99217.97
2019-03-17T19:30:08.249Z,99214.95
2019-03-17T19:32:20.035Z,99213.81
2019-03-17T19:34:27.897Z,99216.27
2019-03-17T19:36:36.220Z,99215.65
2019-03-17T19:38:45.355Z,99212.42
2019-03-17T19:40:53.055Z,99203.42
2019-03-17T19:43:01.114Z,99211.83
2019-03-17T19:45:09.463Z,99210.86
2019-03-17T19:47:17.032Z,99213.01
2019-03-17T19:49:24.945Z,99208.91
2019-03-17T19:51:33.369Z,99212.59
2019-03-17T19:53:41.403Z,99203.91
2019-03-17T19:55:49.597Z,99204.53
2019-03-17T19:57:57.857Z,99199.56
2019-03-17T20:00:06.236Z,99195.56
2019-03-17T20:02:14.167Z,99192.39
2019-03-17T20:04:30.809Z,99198.64
2019-03-17T20:06:32.097Z,99199.72
2019-03-17T20:08:40.489Z,99206.20
2019-03-17T20:10:48.472Z,99205.23
2019-03-17T20:12:56.386Z,99208.95
2019-03-17T20:15:03.968Z,99209.45
2019-03-17T20:17:12.208Z,99208.07
2019-03-17T20:19:20.148Z,99208.78
2019-03-17T20:21:28.020Z,99211.61
2019-03-17T20:23:54.267Z,99206.37
2019-03-17T20:26:01.918Z,99204.07
2019-03-17T20:28:09.844Z,99208.19
2019-03-17T20:30:18.530Z,99210.19
2019-03-17T20:32:28.141Z,99208.72
2019-03-17T20:34:36.094Z,99213.62
2019-03-17T20:36:44.019Z,99216.21
2019-03-17T20:38:51.910Z,99205.38
2019-03-17T20:41:00.695Z,99213.83
2019-03-17T20:43:20.043Z,99212.33
2019-03-17T20:45:20.372Z,99220.03
2019-03-17T20:47:28.468Z,99216.57
2019-03-17T20:49:36.198Z,99214.98
2019-03-17T20:51:44.147Z,99226.55
2019-03-17T20:53:51.912Z,99228.17
2019-03-17T20:55:59.511Z,99228.84
2019-03-17T20:58:07.129Z,99225.91
2019-03-17T21:00:16.414Z,99231.35
2019-03-17T21:02:23.907Z,99223.86
2019-03-17T21:04:31.844Z,99235.85
2019-03-17T21:06:39.437Z,99235.84
2019-03-17T21:08:47.084Z,99242.78
2019-03-17T21:10:54.606Z,99249.73
2019-03-17T21:13:02.129Z,99246.66
2019-03-17T21:15:11.981Z,99248.97
2019-03-17T21:17:19.570Z,99252.16
2019-03-17T21:19:27.424Z,99257.78
2019-03-17T21:21:35.246Z,99253.08
2019-03-17T21:23:42.812Z,99254.59
2019-03-17T21:25:50.629Z,99250.06
2019-03-17T21:27:58.415Z,99252.16
2019-03-17T21:30:08.703Z,99247.84
2019-03-17T21:32:16.339Z,99253.64
2019-03-17T21:34:24.034Z,99257.38
2019-03-17T21:36:31.716Z,99261.12
2019-03-17T21:38:39.543Z,99265.48
2019-03-17T21:41:01.577Z,99265.50
2019-03-17T21:42:57.447Z,99265.95
2019-03-17T21:45:05.430Z,99268.69
2019-03-17T21:47:13.264Z,99264.08
2019-03-17T21:49:21.157Z,99266.21
2019-03-17T21:51:28.841Z,99270.98
2019-03-17T21:53:36.968Z,99270.06
2019-03-17T21:55:44.561Z,99275.67
2019-03-17T21:57:52.278Z,99273.73
2019-03-17T22:00:00.398Z,99268.75
2019-03-17T22:02:12.940Z,99270.42
2019-03-17T22:04:17.900Z,99272.61
2019-03-17T22:06:25.469Z,99279.18
2019-03-17T22:08:33.111Z,99289.87
2019-03-17T22:10:40.712Z,99311.35
2019-03-17T22:12:48.674Z,99323.37
2019-03-17T22:14:56.088Z,99333.20
2019-03-17T22:17:03.762Z,99358.47
2019-03-17T22:19:11.366Z,99368.31
2019-03-17T22:21:18.933Z,99369.27
2019-03-17T22:23:26.451Z,99389.81
2019-03-17T22:25:34.168Z,99388.38
2019-03-17T22:27:41.712Z,99398.22
2019-03-17T22:29:49.210Z,99414.83
2019-03-17T22:31:56.688Z,99418.64
2019-03-17T22:34:04.166Z,99425.45
2019-03-17T22:36:11.804Z,99428.30
2019-03-17T22:38:19.235Z,99446.02
2019-03-17T22:40:26.637Z,99451.45
2019-03-17T22:42:34.028Z,99460.91
2019-03-17T22:44:41.403Z,99461.15
2019-03-17T22:46:48.788Z,99447.06
2019-03-17T22:48:56.759Z,99448.31
2019-03-17T22:51:04.248Z,99441.36
2019-03-17T22:53:11.576Z,99439.89
2019-03-17T22:55:19.133Z,99449.84
2019-03-17T22:57:26.563Z,99453.80
2019-03-17T22:59:33.817Z,99459.52
2019-03-17T23:01:41.324Z,99465.92
2019-03-17T23:03:50.219Z,99466.01
2019-03-17T23:05:57.727Z,99469.11
2019-03-17T23:08:05.349Z,99462.93
2019-03-17T23:10:15.590Z,99451.55
2019-03-17T23:12:23.264Z,99456.62
2019-03-17T23:14:36.694Z,99464.22
2019-03-17T23:16:39.991Z,99473.33
2019-03-17T23:18:47.497Z,99485.74
2019-03-17T23:20:54.973Z,99485.83
2019-03-17T23:23:02.513Z,99478.78
2019-03-17T23:25:10.602Z,99474.84
2019-03-17T23:27:18.101Z,99483.29
2019-03-17T23:29:25.763Z,99480.02
2019-03-17T23:31:34.054Z,99481.14
2019-03-17T23:33:41.613Z,99482.70
2019-03-17T23:35:49.073Z,99489.59
2019-03-17T23:37:56.527Z,99487.98
2019-03-17T23:40:04.114Z,99489.11
2019-03-17T23:42:11.527Z,99488.13
2019-03-17T23:44:19.025Z,99493.73
2019-03-17T23:46:26.497Z,99499.95
2019-03-17T23:48:33.824Z,99507.84
2019-03-17T23:50:41.191Z,99502.94
2019-03-17T23:52:48.473Z,99504.66
2019-03-17T23:54:55.820Z,99509.50
2019-03-17T23:57:03.199Z,99510.11
2019-03-17T23:59:10.536Z,99512.34
